Time;durP1;ratioP1;P1;durP2;ratioP2;P2;SDS_P1;SDS_P2;PMS_P1;PMS_P2;Temp;Humidity;BMP_temperature;BMP_pressure;BME280_temperature;BME280_humidity;BME280_pressure;Samples;Min_cycle;Max_cycle;Signal;HPM_P1;HPM_P2
2022/11/21 00:01:26;;;;;;;0.57;0.57;;;-1.10;99.90;;;;;;4365810;32;20106;-65
2022/11/21 00:03:52;;;;;;;0.70;0.70;;;-1.00;99.90;;;;;;4352120;32;20478;-62
2022/11/21 00:06:18;;;;;;;0.40;0.40;;;-1.00;99.90;;;;;;4345894;32;20071;-61
2022/11/21 00:08:44;;;;;;;0.90;0.90;;;-1.00;99.90;;;;;;4364325;32;20421;-64
2022/11/21 00:11:10;;;;;;;1.75;1.23;;;-1.00;99.90;;;;;;4363724;32;20062;-65
2022/11/21 00:13:35;;;;;;;0.50;0.50;;;-0.80;99.90;;;;;;4362131;32;20102;-65
2022/11/21 00:16:04;;;;;;;0.55;0.55;;;-0.80;99.90;;;;;;4362380;32;20055;-65
2022/11/21 00:18:29;;;;;;;0.50;0.50;;;-0.70;99.90;;;;;;4363154;32;20206;-64
2022/11/21 00:20:55;;;;;;;1.98;1.85;;;-0.70;99.90;;;;;;4362538;32;20086;-64
2022/11/21 00:23:20;;;;;;;0.57;0.57;;;-0.60;99.90;;;;;;4361038;32;20091;-64
2022/11/21 00:25:46;;;;;;;1.08;1.00;;;-0.70;99.90;;;;;;4362583;32;20062;-65
2022/11/21 00:28:11;;;;;;;1.25;1.17;;;-0.60;99.90;;;;;;4362448;32;20134;-66
2022/11/21 00:30:37;;;;;;;0.68;0.68;;;-0.70;99.90;;;;;;4361297;32;20087;-62
2022/11/21 00:33:02;;;;;;;1.02;1.02;;;-0.70;99.90;;;;;;4356669;32;20567;-62
2022/11/21 00:35:29;;;;;;;0.52;0.52;;;-0.60;99.90;;;;;;4344920;32;20523;-61
2022/11/21 00:37:54;;;;;;;1.65;1.42;;;-0.50;99.90;;;;;;4355870;32;20115;-64
2022/11/21 00:40:20;;;;;;;0.70;0.70;;;-0.50;99.90;;;;;;4363608;32;20557;-64
2022/11/21 00:42:45;;;;;;;1.10;1.08;;;-0.60;99.90;;;;;;4363230;32;20130;-63
2022/11/21 00:45:11;;;;;;;1.55;1.02;;;-0.60;99.90;;;;;;4363240;32;20075;-63
2022/11/21 00:47:36;;;;;;;1.55;1.35;;;-0.60;99.90;;;;;;4365117;32;20079;-63
2022/11/21 00:50:02;;;;;;;0.40;0.40;;;-0.50;99.90;;;;;;4363143;32;20074;-65
2022/11/21 00:52:28;;;;;;;0.40;0.40;;;-0.40;99.90;;;;;;4365883;32;20071;-63
2022/11/21 00:54:53;;;;;;;0.45;0.45;;;-0.40;99.90;;;;;;4360059;32;20103;-62
2022/11/21 00:57:19;;;;;;;0.40;0.40;;;-0.50;99.90;;;;;;4361447;32;20074;-64
2022/11/21 00:59:44;;;;;;;0.45;0.45;;;-0.50;99.90;;;;;;4361182;32;20123;-63
2022/11/21 01:02:10;;;;;;;0.40;0.40;;;-0.50;99.90;;;;;;4360294;32;20356;-64
2022/11/21 01:04:35;;;;;;;0.60;0.60;;;-0.50;99.90;;;;;;4343745;32;20090;-62
2022/11/21 01:07:00;;;;;;;0.50;0.50;;;-0.50;99.90;;;;;;4346815;32;21053;-63
2022/11/21 01:09:27;;;;;;;0.43;0.43;;;-0.50;99.90;;;;;;4359332;32;20117;-63
2022/11/21 01:11:53;;;;;;;0.68;0.68;;;-0.50;99.90;;;;;;4360532;32;20079;-63
2022/11/21 01:14:18;;;;;;;0.50;0.50;;;-0.50;99.90;;;;;;4359455;32;20078;-63
2022/11/21 01:16:44;;;;;;;0.52;0.52;;;-0.50;99.90;;;;;;4359746;32;20126;-64
2022/11/21 01:19:09;;;;;;;0.60;0.60;;;-0.50;99.90;;;;;;4361006;32;20115;-64
2022/11/21 01:21:35;;;;;;;0.90;0.88;;;-0.60;99.90;;;;;;4358759;32;20111;-64
2022/11/21 01:24:01;;;;;;;0.70;0.70;;;-0.60;99.90;;;;;;4362701;32;20082;-64
2022/11/21 01:26:28;;;;;;;0.60;0.60;;;-0.60;99.90;;;;;;4360834;32;20094;-64
2022/11/21 01:28:55;;;;;;;0.68;0.68;;;-0.50;99.90;;;;;;4361459;32;20174;-64
2022/11/21 01:31:23;;;;;;;1.85;1.30;;;-0.60;99.90;;;;;;4361298;32;21646;-64
2022/11/21 01:33:49;;;;;;;0.70;0.70;;;-0.60;99.90;;;;;;4351669;32;20107;-62
2022/11/21 01:36:17;;;;;;;0.50;0.50;;;-0.60;99.90;;;;;;4346021;32;20306;-62
2022/11/21 01:38:46;;;;;;;5.90;1.60;;;-0.60;99.90;;;;;;4360084;32;20078;-64
2022/11/21 01:41:15;;;;;;;0.65;0.65;;;-0.60;99.90;;;;;;4357394;32;20083;-63
2022/11/21 01:43:40;;;;;;;1.30;1.23;;;-0.60;99.90;;;;;;4358950;32;20066;-65
2022/11/21 01:46:09;;;;;;;0.70;0.70;;;-0.50;99.90;;;;;;4361387;32;20087;-64
2022/11/21 01:48:37;;;;;;;0.88;0.88;;;-0.60;99.90;;;;;;4362677;32;20082;-61
2022/11/21 01:51:25;;;;;;;0.82;0.70;;;-0.50;99.90;;;;;;4359304;32;20079;-64
2022/11/21 01:54:13;;;;;;;0.62;0.62;;;-0.60;99.90;;;;;;4359330;32;20098;-64
2022/11/21 01:56:43;;;;;;;0.47;0.47;;;-0.50;99.90;;;;;;4362160;32;20138;-63
2022/11/21 01:59:13;;;;;;;1.02;1.02;;;-0.50;99.90;;;;;;4358306;32;20105;-64
2022/11/21 02:01:38;;;;;;;0.47;0.47;;;-0.50;99.90;;;;;;4358791;32;20090;-64
2022/11/21 02:04:06;;;;;;;3.65;1.42;;;-0.50;99.90;;;;;;4346311;32;20095;-62
2022/11/21 02:06:33;;;;;;;0.57;0.57;;;-0.50;99.90;;;;;;4343522;32;20296;-62
2022/11/21 02:09:00;;;;;;;0.95;0.95;;;-0.40;99.90;;;;;;4359838;32;20506;-63
2022/11/21 02:11:35;;;;;;;0.93;0.93;;;-0.60;99.90;;;;;;4358643;32;20106;-65
2022/11/21 02:14:01;;;;;;;0.65;0.65;;;-0.50;99.90;;;;;;4357752;32;20465;-63
2022/11/21 02:16:27;;;;;;;0.60;0.60;;;-0.50;99.90;;;;;;4360430;32;21296;-63
2022/11/21 02:18:53;;;;;;;0.50;0.50;;;-0.50;99.90;;;;;;4360154;32;20447;-64
2022/11/21 02:21:28;;;;;;;0.45;0.45;;;-0.70;99.90;;;;;;4360733;32;20083;-63
2022/11/21 02:24:05;;;;;;;0.47;0.47;;;-0.70;99.90;;;;;;4356982;32;20115;-65
2022/11/21 02:26:31;;;;;;;1.27;1.17;;;-0.70;99.90;;;;;;4359024;32;20110;-64
2022/11/21 02:28:57;;;;;;;0.65;0.65;;;-0.60;99.90;;;;;;4359521;32;21261;-63
2022/11/21 02:31:23;;;;;;;0.50;0.50;;;-0.50;99.90;;;;;;4360676;32;20570;-64
2022/11/21 02:33:48;;;;;;;1.65;1.12;;;-0.50;99.90;;;;;;4351190;32;20078;-62
2022/11/21 02:36:35;;;;;;;0.85;0.85;;;-0.30;99.90;;;;;;4344145;32;20386;-62
2022/11/21 02:39:01;;;;;;;0.75;0.75;;;-0.20;99.90;;;;;;4362976;32;20091;-63
2022/11/21 02:41:29;;;;;;;0.60;0.60;;;-0.20;99.90;;;;;;4360490;32;20078;-63
2022/11/21 02:44:01;;;;;;;0.50;0.50;;;-0.10;99.90;;;;;;4358473;32;20115;-62
2022/11/21 02:46:27;;;;;;;0.77;0.77;;;-0.10;99.90;;;;;;4359362;32;20747;-64
2022/11/21 02:48:54;;;;;;;1.95;1.30;;;0.00;99.90;;;;;;4359359;32;20075;-62
2022/11/21 02:51:20;;;;;;;0.55;0.55;;;0.00;99.90;;;;;;4358439;32;20099;-63
2022/11/21 02:53:45;;;;;;;1.12;1.05;;;0.00;99.90;;;;;;4361137;32;20074;-62
2022/11/21 02:56:11;;;;;;;0.98;0.73;;;0.00;99.90;;;;;;4358068;32;20079;-62
2022/11/21 02:58:36;;;;;;;0.68;0.68;;;0.00;99.90;;;;;;4360589;32;20080;-62
2022/11/21 03:01:02;;;;;;;2.33;1.27;;;0.10;99.90;;;;;;4360179;32;20082;-63
2022/11/21 03:03:27;;;;;;;1.42;1.33;;;0.00;99.90;;;;;;4348247;32;20090;-60
2022/11/21 03:05:54;;;;;;;0.45;0.45;;;0.00;99.90;;;;;;4342822;32;20104;-63
2022/11/21 03:08:20;;;;;;;0.43;0.43;;;-0.10;99.90;;;;;;4357434;32;20078;-63
2022/11/21 03:10:45;;;;;;;0.68;0.68;;;-0.10;99.90;;;;;;4358473;32;20118;-63
2022/11/21 03:13:11;;;;;;;0.60;0.60;;;0.00;99.90;;;;;;4361184;32;20078;-63
2022/11/21 03:15:36;;;;;;;0.40;0.40;;;-0.10;99.90;;;;;;4363731;32;20143;-63
2022/11/21 03:18:02;;;;;;;0.70;0.70;;;-0.10;99.90;;;;;;4364780;32;20066;-63
2022/11/21 03:20:29;;;;;;;1.25;1.15;;;-0.10;99.90;;;;;;4360582;32;20157;-62
2022/11/21 03:22:55;;;;;;;0.50;0.50;;;0.00;99.90;;;;;;4363278;32;20714;-63
2022/11/21 03:25:20;;;;;;;0.50;0.50;;;-0.10;99.90;;;;;;4358318;32;20943;-62
2022/11/21 03:27:48;;;;;;;0.60;0.60;;;-0.10;99.90;;;;;;4360909;32;20523;-64
2022/11/21 03:30:15;;;;;;;0.98;0.70;;;-0.20;99.90;;;;;;4360723;32;20552;-64
2022/11/21 03:32:40;;;;;;;0.60;0.60;;;-0.20;99.90;;;;;;4361001;32;20262;-62
2022/11/21 03:35:06;;;;;;;0.60;0.60;;;-0.30;99.90;;;;;;4345180;32;20063;-60
2022/11/21 03:37:32;;;;;;;0.77;0.77;;;-0.30;99.90;;;;;;4353837;32;20538;-65
2022/11/21 03:39:57;;;;;;;0.62;0.62;;;-0.30;99.90;;;;;;4361279;32;20055;-63
2022/11/21 03:42:23;;;;;;;0.98;0.62;;;-0.30;99.90;;;;;;4362153;32;20543;-63
2022/11/21 03:44:48;;;;;;;1.08;0.90;;;-0.30;99.90;;;;;;4361722;32;20066;-63
2022/11/21 03:47:14;;;;;;;0.82;0.82;;;-0.30;99.90;;;;;;4362654;32;20095;-63
2022/11/21 03:49:39;;;;;;;1.17;1.08;;;-0.40;99.90;;;;;;4362870;32;20087;-62
2022/11/21 03:52:04;;;;;;;1.42;1.33;;;-0.40;99.90;;;;;;4364046;32;20118;-63
2022/11/21 03:54:30;;;;;;;0.85;0.85;;;-0.40;99.90;;;;;;4361052;32;20098;-63
2022/11/21 03:56:55;;;;;;;5.93;2.58;;;-0.40;99.90;;;;;;4362333;32;20118;-63
2022/11/21 03:59:21;;;;;;;0.75;0.75;;;-0.40;99.90;;;;;;4361940;32;20086;-64
2022/11/21 04:01:46;;;;;;;0.98;0.98;;;-0.30;99.90;;;;;;4363706;32;20086;-64
2022/11/21 04:04:12;;;;;;;0.80;0.80;;;-0.20;99.90;;;;;;4351638;32;20524;-60
2022/11/21 04:06:37;;;;;;;0.98;0.98;;;-0.30;99.90;;;;;;4346121;32;20099;-63
2022/11/21 04:09:03;;;;;;;0.85;0.85;;;-0.30;99.90;;;;;;4363011;32;20139;-63
2022/11/21 04:11:28;;;;;;;1.00;1.00;;;-0.30;99.90;;;;;;4358027;32;20083;-63
2022/11/21 04:13:54;;;;;;;0.57;0.57;;;-0.30;99.90;;;;;;4362986;32;20075;-64
2022/11/21 04:16:19;;;;;;;0.85;0.85;;;-0.20;99.90;;;;;;4364850;32;20063;-64
2022/11/21 04:18:45;;;;;;;2.30;1.85;;;-0.20;99.90;;;;;;4361951;32;20112;-63
2022/11/21 04:21:11;;;;;;;1.48;0.80;;;-0.10;99.90;;;;;;4361799;32;20070;-62
2022/11/21 04:23:36;;;;;;;0.40;0.40;;;-0.10;99.90;;;;;;4362033;32;20119;-63
2022/11/21 04:26:02;;;;;;;0.95;0.95;;;-0.10;99.90;;;;;;4363171;32;20579;-63
2022/11/21 04:28:28;;;;;;;2.12;0.98;;;0.00;99.90;;;;;;4364272;32;20356;-64
2022/11/21 04:30:54;;;;;;;1.02;0.90;;;0.00;99.90;;;;;;4363313;32;20078;-63
2022/11/21 04:33:20;;;;;;;0.47;0.47;;;-0.10;99.90;;;;;;4357299;32;20096;-64
2022/11/21 04:35:45;;;;;;;0.68;0.68;;;-0.10;99.90;;;;;;4344461;32;20071;-59
2022/11/21 04:38:12;;;;;;;1.25;1.15;;;-0.20;99.90;;;;;;4356272;32;20083;-64
2022/11/21 04:40:37;;;;;;;0.70;0.70;;;-0.20;99.90;;;;;;4362315;32;20099;-64
2022/11/21 04:43:03;;;;;;;0.80;0.80;;;-0.30;99.90;;;;;;4361341;32;20087;-65
2022/11/21 04:45:30;;;;;;;0.80;0.80;;;-0.30;99.90;;;;;;4359762;32;20083;-63
2022/11/21 04:47:55;;;;;;;1.25;1.17;;;-0.30;99.90;;;;;;4362589;32;20083;-64
2022/11/21 04:50:21;;;;;;;0.70;0.70;;;-0.30;99.90;;;;;;4362114;32;20107;-65
2022/11/21 04:52:52;;;;;;;1.02;1.02;;;-0.30;99.90;;;;;;4363586;32;20867;-65
2022/11/21 04:55:18;;;;;;;0.95;0.95;;;-0.20;99.90;;;;;;4359232;32;20130;-65
2022/11/21 04:57:44;;;;;;;0.57;0.57;;;-0.30;99.90;;;;;;4361608;32;20086;-66
2022/11/21 05:00:10;;;;;;;4.25;1.12;;;-0.40;99.90;;;;;;4360797;32;20083;-65
2022/11/21 05:02:36;;;;;;;0.55;0.55;;;-0.30;99.90;;;;;;4359372;32;20112;-63
2022/11/21 05:05:01;;;;;;;0.88;0.85;;;-0.30;99.90;;;;;;4343354;32;20102;-63
2022/11/21 05:07:27;;;;;;;0.70;0.70;;;-0.30;99.90;;;;;;4351764;32;20554;-66
2022/11/21 05:09:52;;;;;;;0.43;0.43;;;-0.30;99.90;;;;;;4358914;32;20073;-64
2022/11/21 05:13:21;;;;;;;0.75;0.75;;;-0.30;99.90;;;;;;4359428;32;20094;-65
2022/11/21 05:15:04;;;;;;;0.95;0.95;;;-0.40;99.90;;;;;;4357938;32;20103;-63
2022/11/21 05:17:29;;;;;;;3.70;1.60;;;-0.30;99.90;;;;;;4361233;32;20138;-64
2022/11/21 05:19:55;;;;;;;1.17;1.08;;;-0.30;99.90;;;;;;4358772;32;20137;-64
2022/11/21 05:22:21;;;;;;;0.77;0.77;;;-0.30;99.90;;;;;;4341425;32;20821;-60
2022/11/21 05:24:46;;;;;;;0.70;0.70;;;-0.20;99.90;;;;;;4324800;32;20095;-62
2022/11/21 05:27:12;;;;;;;0.60;0.60;;;-0.10;99.90;;;;;;4325994;32;20129;-62
2022/11/21 05:29:37;;;;;;;0.40;0.40;;;-0.10;99.90;;;;;;4326105;32;20499;-61
2022/11/21 05:32:03;;;;;;;4.72;1.52;;;0.00;99.90;;;;;;4326985;32;20078;-63
2022/11/21 05:34:28;;;;;;;1.35;1.25;;;0.00;99.90;;;;;;4311017;32;21158;-62
2022/11/21 05:36:57;;;;;;;0.47;0.47;;;0.00;99.90;;;;;;4325465;32;20179;-63
2022/11/21 05:39:24;;;;;;;0.50;0.50;;;-0.10;99.90;;;;;;4359920;32;20610;-62
2022/11/21 05:41:49;;;;;;;0.90;0.90;;;0.00;99.90;;;;;;4358449;32;20491;-62
2022/11/21 05:44:15;;;;;;;1.02;1.02;;;0.00;99.90;;;;;;4359405;32;20067;-63
2022/11/21 05:46:40;;;;;;;0.52;0.52;;;0.00;99.90;;;;;;4361321;32;20102;-63
2022/11/21 05:49:06;;;;;;;0.95;0.95;;;0.00;99.90;;;;;;4359774;32;20336;-64
2022/11/21 05:51:32;;;;;;;3.20;1.15;;;0.00;99.90;;;;;;4357013;32;20563;-62
2022/11/21 05:53:58;;;;;;;1.20;0.98;;;0.00;99.90;;;;;;4316485;32;20071;-62
2022/11/21 05:56:24;;;;;;;1.12;1.08;;;0.00;99.90;;;;;;4328612;32;20099;-60
2022/11/21 05:58:50;;;;;;;0.80;0.80;;;0.10;99.90;;;;;;4359980;32;20087;-64
2022/11/21 06:03:25;;;;;;;0.73;0.73;;;0.10;99.90;;;;;;4351215;32;20055;-63
2022/11/21 06:04:01;;;;;;;0.50;0.50;;;0.00;99.90;;;;;;4322435;32;20099;-63
2022/11/21 06:06:26;;;;;;;0.62;0.62;;;0.20;99.90;;;;;;4314735;32;20091;-62
2022/11/21 06:08:52;;;;;;;0.88;0.88;;;0.30;99.90;;;;;;4314536;32;20593;-61
2022/11/21 06:11:18;;;;;;;0.80;0.80;;;0.30;99.90;;;;;;4316881;32;20611;-62
2022/11/21 06:13:43;;;;;;;0.75;0.75;;;0.30;99.90;;;;;;4311195;32;20554;-61
2022/11/21 06:16:12;;;;;;;0.50;0.50;;;0.40;99.90;;;;;;4315216;32;20232;-61
2022/11/21 06:18:39;;;;;;;0.50;0.50;;;0.50;99.90;;;;;;4279993;32;20498;-61
2022/11/21 06:21:12;;;;;;;1.27;0.80;;;0.40;99.90;;;;;;4271475;32;20106;-60
2022/11/21 06:23:38;;;;;;;0.70;0.70;;;0.40;99.90;;;;;;4260077;32;20730;-59
2022/11/21 06:26:06;;;;;;;1.20;1.20;;;0.50;99.90;;;;;;4266478;32;20094;-61
2022/11/21 06:28:34;;;;;;;2.17;1.77;;;0.50;99.90;;;;;;4279611;32;20651;-61
2022/11/21 06:31:02;;;;;;;0.62;0.62;;;0.50;99.90;;;;;;4251484;32;20171;-61
2022/11/21 06:33:28;;;;;;;2.92;1.00;;;0.50;99.90;;;;;;4273924;32;20411;-60
2022/11/21 06:35:53;;;;;;;0.80;0.80;;;0.50;99.90;;;;;;4286180;32;20340;-60
2022/11/21 06:38:19;;;;;;;0.60;0.60;;;0.50;99.90;;;;;;4293657;32;20251;-61
2022/11/21 06:40:44;;;;;;;0.50;0.50;;;0.50;99.90;;;;;;4288810;32;20479;-60
2022/11/21 06:43:10;;;;;;;1.15;1.05;;;0.50;99.90;;;;;;4288713;32;20449;-63
2022/11/21 06:45:35;;;;;;;0.40;0.40;;;0.60;99.90;;;;;;4315736;32;20078;-64
2022/11/21 06:48:02;;;;;;;1.48;1.37;;;0.60;99.90;;;;;;4318193;32;20477;-62
2022/11/21 06:50:30;;;;;;;0.37;0.37;;;0.60;99.90;;;;;;4320593;32;20124;-60
2022/11/21 06:52:57;;;;;;;1.08;1.08;;;0.60;99.90;;;;;;4322946;32;20230;-62
2022/11/21 06:55:24;;;;;;;1.08;1.08;;;0.60;99.90;;;;;;4336299;32;20603;-61
2022/11/21 06:57:49;;;;;;;0.88;0.88;;;0.60;99.90;;;;;;4338927;32;20110;-62
2022/11/21 07:00:15;;;;;;;1.02;1.02;;;0.60;99.90;;;;;;4304233;32;20151;-62
2022/11/21 07:02:41;;;;;;;1.75;1.52;;;0.60;99.90;;;;;;4292971;32;21257;-61
2022/11/21 07:05:06;;;;;;;0.52;0.52;;;0.50;99.90;;;;;;4279054;32;21071;-62
2022/11/21 07:07:32;;;;;;;18.73;2.15;;;0.40;99.90;;;;;;4293824;32;20387;-63
2022/11/21 07:09:57;;;;;;;0.57;0.57;;;0.50;99.90;;;;;;4301859;32;20082;-63
2022/11/21 07:13:24;;;;;;;0.95;0.95;;;0.50;99.90;;;;;;4303511;32;20201;-64
2022/11/21 07:15:09;;;;;;;0.40;0.40;;;0.60;99.90;;;;;;4316190;32;20841;-64
2022/11/21 07:17:34;;;;;;;9.05;2.03;;;0.50;99.90;;;;;;4316416;32;20292;-63
2022/11/21 07:20:00;;;;;;;1.73;1.55;;;0.60;99.90;;;;;;4295129;32;20288;-64
2022/11/21 07:22:25;;;;;;;0.70;0.70;;;0.60;99.90;;;;;;4307254;32;20335;-64
2022/11/21 07:24:51;;;;;;;0.70;0.70;;;0.60;99.90;;;;;;4304133;32;20657;-64
2022/11/21 07:27:16;;;;;;;1.52;1.02;;;0.60;99.90;;;;;;4306753;32;20262;-63
2022/11/21 07:29:42;;;;;;;0.50;0.50;;;0.60;99.90;;;;;;4296216;32;21327;-61
2022/11/21 07:32:07;;;;;;;0.70;0.70;;;0.50;99.90;;;;;;4292278;32;107363;-62
2022/11/21 07:34:32;;;;;;;2.15;1.62;;;0.60;99.90;;;;;;4284085;32;20285;-63
2022/11/21 07:36:58;;;;;;;6.75;1.83;;;0.50;99.90;;;;;;4298937;32;20079;-62
2022/11/21 07:39:23;;;;;;;14.80;2.25;;;0.60;99.90;;;;;;4313821;32;20119;-62
2022/11/21 07:41:49;;;;;;;2.17;1.33;;;0.60;99.90;;;;;;4307337;32;20095;-62
2022/11/21 07:44:14;;;;;;;1.52;1.40;;;0.60;99.90;;;;;;4301732;32;20107;-64
2022/11/21 07:46:40;;;;;;;0.68;0.68;;;0.60;99.90;;;;;;4315541;32;20086;-62
2022/11/21 07:49:05;;;;;;;1.05;1.05;;;0.60;99.90;;;;;;4298533;32;20293;-62
2022/11/21 07:51:31;;;;;;;1.20;1.15;;;0.70;99.90;;;;;;4293206;32;20210;-62
2022/11/21 07:53:57;;;;;;;0.77;0.77;;;0.70;99.90;;;;;;4303331;32;20132;-62
2022/11/21 07:56:25;;;;;;;0.60;0.60;;;0.70;99.90;;;;;;4303613;32;20095;-64
2022/11/21 07:58:51;;;;;;;1.35;1.25;;;0.70;99.90;;;;;;4314885;32;20195;-64
2022/11/21 08:01:17;;;;;;;2.70;2.15;;;0.50;99.90;;;;;;4293001;32;20853;-61
2022/11/21 08:03:42;;;;;;;0.93;0.93;;;0.60;99.90;;;;;;4274418;32;20174;-61
2022/11/21 08:06:10;;;;;;;1.08;1.08;;;0.50;99.90;;;;;;4292869;32;20147;-61
2022/11/21 08:08:36;;;;;;;0.65;0.65;;;0.60;99.90;;;;;;4294791;32;20094;-64
2022/11/21 08:11:05;;;;;;;0.50;0.50;;;0.50;99.90;;;;;;4300392;32;20661;-61
2022/11/21 08:13:31;;;;;;;0.70;0.70;;;0.40;99.90;;;;;;4300363;32;20586;-61
2022/11/21 08:15:57;;;;;;;0.93;0.80;;;0.50;99.90;;;;;;4309086;32;20107;-62
2022/11/21 08:18:22;;;;;;;5.93;2.05;;;0.50;99.90;;;;;;4300809;32;20724;-63
2022/11/21 08:20:48;;;;;;;0.62;0.62;;;0.60;99.90;;;;;;4298605;32;20070;-62
2022/11/21 08:23:14;;;;;;;1.30;0.88;;;0.40;99.90;;;;;;4296564;32;21016;-62
2022/11/21 08:25:40;;;;;;;0.50;0.50;;;0.50;99.90;;;;;;4309470;32;20779;-61
2022/11/21 08:28:07;;;;;;;0.77;0.77;;;0.40;99.90;;;;;;4305508;32;20698;-63
2022/11/21 08:30:33;;;;;;;0.75;0.75;;;0.40;99.90;;;;;;4275215;32;20199;-61
2022/11/21 08:32:59;;;;;;;1.37;1.27;;;0.30;99.90;;;;;;4269675;32;20256;-60
2022/11/21 08:35:26;;;;;;;0.70;0.70;;;0.40;99.90;;;;;;4267845;32;20102;-61
2022/11/21 08:37:59;;;;;;;0.55;0.55;;;0.40;99.90;;;;;;4304134;32;20107;-64
2022/11/21 08:40:27;;;;;;;0.60;0.60;;;0.40;99.90;;;;;;4305919;32;20115;-64
2022/11/21 08:43:01;;;;;;;2.17;1.37;;;0.50;99.90;;;;;;4313025;32;20106;-64
2022/11/21 08:45:27;;;;;;;0.68;0.68;;;0.40;99.90;;;;;;4315424;32;20135;-64
2022/11/21 08:47:53;;;;;;;0.93;0.82;;;0.40;99.90;;;;;;4301779;32;20487;-64
2022/11/21 08:50:19;;;;;;;0.70;0.70;;;0.50;99.90;;;;;;4278172;32;20327;-63
2022/11/21 08:52:45;;;;;;;1.52;1.42;;;0.50;99.90;;;;;;4285286;32;20162;-65
2022/11/21 08:55:11;;;;;;;2.28;0.93;;;0.20;99.90;;;;;;4294712;32;20133;-64
2022/11/21 08:57:38;;;;;;;0.80;0.80;;;0.20;99.90;;;;;;4303281;32;20099;-62
2022/11/21 09:00:05;;;;;;;0.70;0.70;;;0.20;99.90;;;;;;4288596;32;20825;-63
2022/11/21 09:02:30;;;;;;;1.10;0.98;;;0.20;99.90;;;;;;4285278;32;20887;-63
2022/11/21 09:04:56;;;;;;;1.00;1.00;;;0.20;99.90;;;;;;4283283;32;20221;-64
2022/11/21 09:07:21;;;;;;;6.22;1.60;;;0.20;99.90;;;;;;4296557;32;20115;-65
2022/11/21 09:09:47;;;;;;;0.55;0.55;;;0.20;99.90;;;;;;4307802;32;20598;-64
2022/11/21 09:12:12;;;;;;;0.88;0.88;;;0.00;99.90;;;;;;4293070;32;20085;-62
2022/11/21 09:18:24;;;;;;;0.60;0.60;;;-0.10;99.90;;;;;;4303126;32;20115;-63
2022/11/21 09:20:10;;;;;;;1.40;1.30;;;-0.10;99.90;;;;;;4292128;32;20098;-64
2022/11/21 09:22:35;;;;;;;0.95;0.95;;;0.00;99.90;;;;;;4309807;32;20697;-63
2022/11/21 09:25:01;;;;;;;0.50;0.50;;;0.00;99.90;;;;;;4311509;32;20111;-64
2022/11/21 09:27:26;;;;;;;0.50;0.50;;;0.00;99.90;;;;;;4310292;32;20157;-66
2022/11/21 09:29:52;;;;;;;1.48;1.25;;;-0.10;99.90;;;;;;4291980;32;20725;-63
2022/11/21 09:32:17;;;;;;;3.00;1.73;;;-0.10;99.90;;;;;;4305491;32;20163;-64
2022/11/21 09:34:43;;;;;;;2.83;2.08;;;-0.20;99.90;;;;;;4285380;32;20609;-64
2022/11/21 09:37:09;;;;;;;0.57;0.57;;;-0.30;99.90;;;;;;4300916;32;20383;-65
2022/11/21 09:39:34;;;;;;;3.60;1.48;;;-0.40;99.90;;;;;;4303067;32;20191;-64
2022/11/21 09:42:24;;;;;;;2.20;1.08;;;-0.20;99.90;;;;;;4301039;32;20177;-64
2022/11/21 09:45:01;;;;;;;0.40;0.40;;;-0.20;99.90;;;;;;4316017;32;20240;-63
2022/11/21 09:47:34;;;;;;;0.50;0.50;;;-0.30;99.90;;;;;;4319617;32;20742;-63
2022/11/21 09:50:04;;;;;;;5.68;1.15;;;-0.20;99.90;;;;;;4304481;32;20083;-64
2022/11/21 09:52:37;;;;;;;0.40;0.40;;;-0.20;99.90;;;;;;4306040;32;20322;-63
2022/11/21 09:55:07;;;;;;;1.30;1.20;;;-0.20;99.90;;;;;;4295736;32;20258;-63
2022/11/21 09:57:35;;;;;;;0.50;0.50;;;-0.10;99.90;;;;;;4310336;32;20670;-62
2022/11/21 10:00:08;;;;;;;3.20;1.83;;;-0.10;99.90;;;;;;4289309;32;20423;-63
2022/11/21 10:02:33;;;;;;;0.65;0.65;;;-0.20;99.90;;;;;;4294489;32;20720;-63
2022/11/21 10:04:59;;;;;;;0.85;0.85;;;-0.30;99.90;;;;;;4284819;32;20215;-63
2022/11/21 10:07:29;;;;;;;1.12;0.95;;;-0.30;99.90;;;;;;4287805;32;20975;-61
2022/11/21 10:10:03;;;;;;;0.70;0.70;;;-0.20;99.90;;;;;;4297629;32;20151;-63
2022/11/21 10:12:52;;;;;;;0.57;0.57;;;-0.40;99.90;;;;;;4303637;32;21249;-63
2022/11/21 10:15:24;;;;;;;0.70;0.70;;;-0.40;99.90;;;;;;4312123;32;21162;-62
2022/11/21 10:18:11;;;;;;;0.68;0.68;;;-0.50;99.90;;;;;;4315397;32;20126;-63
2022/11/21 10:20:53;;;;;;;0.70;0.70;;;-0.60;99.90;;;;;;4293754;32;20304;-62
2022/11/21 10:23:32;;;;;;;0.80;0.80;;;-0.50;99.90;;;;;;4286490;32;20630;-62
2022/11/21 10:26:18;;;;;;;0.60;0.60;;;-0.30;99.90;;;;;;4302547;32;21677;-63
2022/11/21 10:28:53;;;;;;;0.40;0.40;;;-0.30;99.90;;;;;;4301165;32;22144;-62
2022/11/21 10:31:19;;;;;;;0.70;0.70;;;-0.40;99.90;;;;;;4287007;32;20154;-62
2022/11/21 10:33:45;;;;;;;7.65;1.17;;;-0.40;99.90;;;;;;4283282;32;20268;-62
2022/11/21 10:36:24;;;;;;;0.40;0.40;;;-0.30;99.90;;;;;;4290186;32;20493;-62
2022/11/21 10:38:54;;;;;;;0.80;0.80;;;-0.30;99.90;;;;;;4303583;32;20091;-62
2022/11/21 10:41:44;;;;;;;4.57;1.62;;;-0.40;99.90;;;;;;4301890;32;22258;-63
2022/11/21 10:45:22;;;;;;;0.40;0.40;;;-0.50;99.90;;;;;;4313110;32;20111;-61
2022/11/21 10:47:15;;;;;;;0.50;0.50;;;-0.50;99.90;;;;;;4318913;32;20842;-60
2022/11/21 10:49:44;;;;;;;0.50;0.50;;;-0.60;99.90;;;;;;4304556;32;20164;-62
2022/11/21 10:52:14;;;;;;;0.40;0.40;;;-0.50;99.90;;;;;;4311756;32;20102;-61
2022/11/21 10:55:02;;;;;;;1.40;1.30;;;-0.50;99.90;;;;;;4316107;32;20147;-61
2022/11/21 10:57:31;;;;;;;0.75;0.75;;;-0.30;99.90;;;;;;4314169;32;20271;-63
2022/11/21 11:00:01;;;;;;;0.40;0.40;;;-0.30;99.90;;;;;;4300593;32;20102;-62
2022/11/21 11:02:27;;;;;;;0.40;0.40;;;-0.30;99.90;;;;;;4304420;32;21398;-62
2022/11/21 11:05:21;;;;;;;0.40;0.40;;;-0.20;99.90;;;;;;4298251;32;20230;-61
2022/11/21 11:08:07;;;;;;;0.80;0.80;;;-0.10;99.90;;;;;;4308579;32;20090;-62
2022/11/21 11:10:36;;;;;;;0.43;0.43;;;-0.10;99.90;;;;;;4308403;32;20123;-61
2022/11/21 11:13:34;;;;;;;0.40;0.40;;;-0.10;99.90;;;;;;4301345;32;20295;-62
2022/11/21 11:16:14;;;;;;;0.65;0.65;;;0.00;99.90;;;;;;4284124;32;20242;-64
2022/11/21 11:18:49;;;;;;;0.52;0.52;;;0.00;99.90;;;;;;4288142;32;21089;-61
2022/11/21 11:21:20;;;;;;;0.40;0.40;;;0.10;99.90;;;;;;4298567;32;20118;-64
2022/11/21 11:23:48;;;;;;;0.45;0.45;;;0.00;99.90;;;;;;4298399;32;20539;-60
2022/11/21 11:26:21;;;;;;;0.80;0.80;;;0.10;99.90;;;;;;4319071;32;20106;-63
2022/11/21 11:28:47;;;;;;;0.77;0.77;;;0.10;99.90;;;;;;4317851;32;20079;-62
2022/11/21 11:31:12;;;;;;;0.57;0.57;;;0.10;99.90;;;;;;4315839;32;20086;-63
2022/11/21 11:33:48;;;;;;;1.37;1.27;;;0.10;99.90;;;;;;4314300;32;20699;-60
2022/11/21 11:36:38;;;;;;;0.47;0.47;;;-0.20;99.90;;;;;;4309023;32;20198;-60
2022/11/21 11:39:15;;;;;;;0.70;0.70;;;-0.20;99.90;;;;;;4318171;32;21164;-58
2022/11/21 11:47:31;;;;;;;0.40;0.40;;;-0.20;99.90;;;;;;4329402;32;20296;-62
2022/11/21 11:48:03;;;;;;;4.20;1.10;;;-0.20;99.90;;;;;;4307031;32;20407;-61
2022/11/21 11:50:50;;;;;;;0.50;0.50;;;-0.10;99.90;;;;;;4307410;32;20278;-60
2022/11/21 11:53:19;;;;;;;0.62;0.62;;;-0.10;99.90;;;;;;4293443;32;20626;-61
2022/11/21 11:56:08;;;;;;;2.17;1.37;;;-0.10;99.90;;;;;;4295415;32;20190;-62
2022/11/21 11:58:58;;;;;;;0.80;0.80;;;-0.10;99.90;;;;;;4309651;32;21083;-62
2022/11/21 12:01:34;;;;;;;0.60;0.60;;;-0.20;99.90;;;;;;4306615;32;20780;-63
2022/11/21 12:04:10;;;;;;;0.60;0.60;;;-0.10;99.90;;;;;;4306334;32;20191;-63
2022/11/21 12:06:45;;;;;;;0.70;0.70;;;-0.20;99.90;;;;;;4309459;32;20247;-63
2022/11/21 12:09:26;;;;;;;0.40;0.40;;;0.00;99.90;;;;;;4315100;32;20079;-64
2022/11/21 12:12:05;;;;;;;0.40;0.40;;;0.00;99.90;;;;;;4310512;32;20206;-64
2022/11/21 12:15:48;;;;;;;1.35;1.25;;;-0.10;99.90;;;;;;4317531;32;20569;-64
2022/11/21 12:17:49;;;;;;;0.80;0.80;;;0.00;99.90;;;;;;4313674;32;20090;-63
2022/11/21 12:20:23;;;;;;;0.50;0.50;;;0.10;99.90;;;;;;4306095;32;20089;-63
2022/11/21 12:22:51;;;;;;;0.40;0.40;;;0.10;99.90;;;;;;4312947;32;20778;-65
2022/11/21 12:25:22;;;;;;;0.40;0.40;;;0.10;99.90;;;;;;4307379;32;20157;-62
2022/11/21 12:27:52;;;;;;;0.50;0.50;;;0.10;99.90;;;;;;4329050;32;20702;-62
2022/11/21 12:30:57;;;;;;;0.57;0.57;;;0.00;99.90;;;;;;4299857;32;20103;-62
2022/11/21 12:33:23;;;;;;;0.50;0.50;;;0.00;99.90;;;;;;4296127;32;20634;-61
2022/11/21 12:36:13;;;;;;;0.60;0.60;;;0.00;99.90;;;;;;4295351;32;20190;-63
2022/11/21 12:39:12;;;;;;;1.65;1.20;;;0.10;99.90;;;;;;4291612;32;20253;-63
2022/11/21 12:42:48;;;;;;;0.50;0.50;;;0.00;99.90;;;;;;4307347;32;20443;-63
2022/11/21 12:45:27;;;;;;;0.50;0.50;;;0.20;99.90;;;;;;4278330;32;20208;-62
2022/11/21 12:54:29;;;;;;;0.88;0.88;;;0.30;99.90;;;;;;4297859;32;20167;-63
2022/11/21 12:54:41;;;;;;;0.88;0.88;;;0.30;99.90;;;;;;4299840;32;20568;-63
2022/11/21 12:57:10;;;;;;;0.60;0.60;;;0.40;99.90;;;;;;4316336;32;20440;-64
2022/11/21 12:59:49;;;;;;;0.80;0.80;;;0.30;99.90;;;;;;4300518;32;20215;-64
2022/11/21 13:02:26;;;;;;;0.50;0.50;;;0.20;99.90;;;;;;4308221;32;20411;-63
2022/11/21 13:04:53;;;;;;;0.50;0.50;;;0.10;99.90;;;;;;4293064;32;21210;-64
2022/11/21 13:07:21;;;;;;;0.70;0.70;;;0.20;99.90;;;;;;4290340;32;20527;-63
2022/11/21 13:09:49;;;;;;;1.15;0.82;;;0.20;99.90;;;;;;4300901;32;20106;-65
2022/11/21 13:12:20;;;;;;;0.80;0.80;;;0.20;99.90;;;;;;4309912;32;20490;-65